This is the latest recevied weather packets stored in our database for station/object N4VTB-13. If no packets are shown the sender has not sent any weather packets the latest 10 day(s).
| Time | Temp. | Humidity | Pressure | Rain* | Wind** | Luminosity | Snow |
|---|---|---|---|---|---|---|---|
| 1777544476 | 8.89° C | 90% | 1022.4 hPa | 0 mm | - | 0 W/m² | - |
| 1777542676 | 8.89° C | 90% | 1022.5 hPa | 0 mm | - | 0 W/m² | - |
| 1777541476 | 8.89° C | 89% | 1022.6 hPa | 0 mm | - | 0 W/m² | - |
| 1777539076 | 9.44° C | 88% | 1022.9 hPa | 0 mm | - | 0 W/m² | - |
| 1777538475 | 9.44° C | 88% | 1023 hPa | 0 mm | - | 0 W/m² | - |
| 1777534875 | 10° C | 87% | 1023.2 hPa | 0 mm | - | 0 W/m² | - |
| 1777528876 | 11.11° C | 83% | 1023.2 hPa | 0 mm | - | 0 W/m² | - |
| 1777527076 | 11.11° C | 82% | 1023.4 hPa | 0 mm | - | 0 W/m² | - |
| 1777524676 | 12.22° C | 81% | 1023.3 hPa | 0 mm | - | 0 W/m² | - |
| 1777523476 | 12.78° C | 80% | 1023.2 hPa | 0 mm | - | 0 W/m² | - |
| 1777521075 | 13.89° C | 77% | 1023 hPa | 0 mm | - | 0 W/m² | - |
| 1777518676 | 15° C | 74% | 1022.6 hPa | 0 mm | - | 0 W/m² | - |
| 1777515075 | 17.22° C | 66% | 1022.7 hPa | 0 mm | - | 21 W/m² | - |
| 1777510295 | 18.33° C | 61% | 1023 hPa | 0 mm | - | 260 W/m² | - |
| 1777504877 | 18.33° C | 59% | 1023.3 hPa | 0 mm | - | 49 W/m² | - |
| 1777503677 | 18.33° C | 58% | 1023.5 hPa | 0 mm | - | 60 W/m² | - |
| 1777501277 | 18.33° C | 58% | 1023.9 hPa | 0 mm | - | 53 W/m² | - |
| 1777497077 | 18.33° C | 57% | 1024.3 hPa | 0 mm | - | 90 W/m² | - |
| 1777495277 | 18.89° C | 55% | 1024.5 hPa | 0 mm | - | 722 W/m² | - |
| 1777494677 | 19.44° C | 55% | 1024.6 hPa | 0 mm | - | 830 W/m² | - |
| 1777486277 | 16.11° C | 60% | 1025.5 hPa | 0 mm | - | 723 W/m² | - |
| 1777485716 | 16.11° C | 60% | 1025.5 hPa | 0 mm | - | 701 W/m² | - |
| 1777480876 | 14.44° C | 67% | 1025.8 hPa | 0 mm | - | 524 W/m² | - |
| 1777474296 | 7.22° C | 92% | 1026.4 hPa | 0 mm | - | 33 W/m² | - |
| 1777472476 | 6.67° C | 93% | 1026.2 hPa | 0 mm | - | 23 W/m² | - |
* Rain latest hour (hover to see other rain measurements)
** Current wind speed in m/s (hover to see current wind gust speed)